createdAt,value
2022-10-05T00:01:21.613Z,22.30
2022-10-05T00:03:50.088Z,22.30
2022-10-05T00:06:18.276Z,22.30
2022-10-05T00:08:46.339Z,22.30
2022-10-05T00:11:17.498Z,22.30
2022-10-05T00:13:47.082Z,22.30
2022-10-05T00:16:18.314Z,22.30
2022-10-05T00:18:49.776Z,22.30
2022-10-05T00:21:23.809Z,22.30
2022-10-05T00:23:52.708Z,22.30
2022-10-05T00:26:25.023Z,22.30
2022-10-05T00:28:54.538Z,22.30
2022-10-05T00:31:24.997Z,22.30
2022-10-05T00:33:54.915Z,22.30
2022-10-05T00:36:23.266Z,22.30
2022-10-05T00:38:51.466Z,22.30
2022-10-05T00:41:25.006Z,22.30
2022-10-05T00:44:09.992Z,22.30
2022-10-05T00:46:48.157Z,22.20
2022-10-05T00:49:30.468Z,22.20
2022-10-05T00:52:09.876Z,22.20
2022-10-05T00:54:43.559Z,22.20
2022-10-05T00:57:37.350Z,22.20
2022-10-05T01:00:09.075Z,22.20
2022-10-05T01:02:53.240Z,22.20
2022-10-05T01:05:44.374Z,22.20
2022-10-05T01:08:24.426Z,22.20
2022-10-05T01:11:03.245Z,22.20
2022-10-05T01:13:36.894Z,22.20
2022-10-05T01:16:11.279Z,22.20
2022-10-05T01:18:46.551Z,22.20
2022-10-05T01:21:20.589Z,22.20
2022-10-05T01:24:29.604Z,22.20
2022-10-05T01:27:19.519Z,22.20
2022-10-05T01:29:55.799Z,22.20
2022-10-05T01:32:30.941Z,22.10
2022-10-05T01:35:09.709Z,22.20
2022-10-05T01:37:49.216Z,22.10
2022-10-05T01:40:24.592Z,22.10
2022-10-05T01:43:03.445Z,22.10
2022-10-05T01:45:45.269Z,22.10
2022-10-05T01:48:19.321Z,22.10
2022-10-05T01:50:58.018Z,22.10
2022-10-05T01:53:37.160Z,22.10
2022-10-05T01:56:13.531Z,22.10
2022-10-05T01:58:52.096Z,22.10
2022-10-05T02:01:31.116Z,22.10
2022-10-05T02:04:07.049Z,22.10
2022-10-05T02:06:42.053Z,22.10
2022-10-05T02:09:15.656Z,22.10
2022-10-05T02:11:48.453Z,22.10
2022-10-05T02:14:22.488Z,22.10
2022-10-05T02:16:55.653Z,22.00
2022-10-05T02:19:26.853Z,22.00
2022-10-05T02:22:00.412Z,22.00
2022-10-05T02:24:33.471Z,22.00
2022-10-05T02:27:03.666Z,22.00
2022-10-05T02:29:35.328Z,22.00
2022-10-05T02:32:09.052Z,22.00
2022-10-05T02:34:39.266Z,22.00
2022-10-05T02:37:25.226Z,22.00
2022-10-05T02:40:17.290Z,22.00
2022-10-05T02:42:55.936Z,22.00
2022-10-05T02:45:30.941Z,22.00
2022-10-05T02:48:10.513Z,22.00
2022-10-05T02:50:45.956Z,22.00
2022-10-05T02:53:24.476Z,22.00
2022-10-05T02:56:02.263Z,22.00
2022-10-05T02:58:39.805Z,22.00
2022-10-05T03:01:17.078Z,22.00
2022-10-05T03:03:53.956Z,22.00
2022-10-05T03:06:26.572Z,22.00
2022-10-05T03:09:03.464Z,22.00
2022-10-05T03:11:41.680Z,21.90
2022-10-05T03:14:15.925Z,22.00
2022-10-05T03:16:55.003Z,22.00
2022-10-05T03:19:51.909Z,22.00
2022-10-05T03:22:34.786Z,22.00
2022-10-05T03:25:21.281Z,21.90
2022-10-05T03:27:56.900Z,21.90
2022-10-05T03:30:26.658Z,21.90
2022-10-05T03:33:03.279Z,21.90
2022-10-05T03:35:36.691Z,21.90
2022-10-05T03:38:13.371Z,21.90
2022-10-05T03:40:48.323Z,21.90
2022-10-05T03:43:47.438Z,21.90
2022-10-05T03:46:21.597Z,21.90
2022-10-05T03:48:54.546Z,21.90
2022-10-05T03:51:30.448Z,21.90
2022-10-05T03:54:04.224Z,21.90
2022-10-05T03:56:37.307Z,21.90
2022-10-05T03:59:11.247Z,21.90
2022-10-05T04:01:44.245Z,21.90
2022-10-05T04:04:20.777Z,21.90
2022-10-05T04:06:51.784Z,21.90
2022-10-05T04:09:25.404Z,21.90
2022-10-05T04:11:59.131Z,21.80
2022-10-05T04:14:33.221Z,21.90
2022-10-05T04:17:07.027Z,21.80
2022-10-05T04:19:41.513Z,21.80
2022-10-05T04:22:15.704Z,21.80
2022-10-05T04:24:50.482Z,21.80
2022-10-05T04:27:23.131Z,21.80
2022-10-05T04:29:58.504Z,21.80
2022-10-05T04:32:32.269Z,21.80
2022-10-05T04:35:38.417Z,21.80
2022-10-05T04:38:21.177Z,21.80
2022-10-05T04:41:02.525Z,21.80
2022-10-05T04:43:42.118Z,21.80
2022-10-05T04:46:25.678Z,21.80
2022-10-05T04:49:19.603Z,21.80
2022-10-05T04:51:59.207Z,21.80
2022-10-05T04:54:43.227Z,21.80
2022-10-05T04:57:17.333Z,21.80
2022-10-05T05:00:13.709Z,21.80
2022-10-05T05:02:56.904Z,21.80
2022-10-05T05:05:35.863Z,21.80
2022-10-05T05:08:17.124Z,21.80
2022-10-05T05:10:59.737Z,21.80
2022-10-05T05:13:57.371Z,21.80
2022-10-05T05:16:33.462Z,21.80
2022-10-05T05:19:23.942Z,21.80
2022-10-05T05:22:01.235Z,21.80
2022-10-05T05:24:44.374Z,21.70
2022-10-05T05:27:47.531Z,21.70
2022-10-05T05:30:23.961Z,21.70
2022-10-05T05:33:09.127Z,21.70
2022-10-05T05:36:18.313Z,21.70
2022-10-05T05:38:59.342Z,21.70
2022-10-05T05:41:37.196Z,21.70
2022-10-05T05:44:18.445Z,21.70
2022-10-05T05:47:10.291Z,21.70
2022-10-05T05:49:52.265Z,21.70
2022-10-05T05:52:25.193Z,21.70
2022-10-05T05:54:58.699Z,21.70
2022-10-05T05:57:31.990Z,21.70
2022-10-05T06:00:08.090Z,21.70
2022-10-05T06:02:51.875Z,21.70
2022-10-05T06:05:32.744Z,21.70
2022-10-05T06:08:09.945Z,21.70
2022-10-05T06:10:45.068Z,21.70
2022-10-05T06:13:19.125Z,21.70
2022-10-05T06:15:54.905Z,21.70
2022-10-05T06:18:24.072Z,21.70
2022-10-05T06:20:58.385Z,21.70
2022-10-05T06:23:34.169Z,21.70
2022-10-05T06:26:21.247Z,21.70
2022-10-05T06:28:54.144Z,21.70
2022-10-05T06:31:36.718Z,21.70
2022-10-05T06:34:20.446Z,21.70
2022-10-05T06:36:52.038Z,21.70
2022-10-05T06:39:38.447Z,21.70
2022-10-05T06:42:19.520Z,21.70
2022-10-05T06:45:08.134Z,21.70
2022-10-05T06:48:05.047Z,21.70
2022-10-05T06:51:18.712Z,21.70
2022-10-05T06:54:32.793Z,21.70
2022-10-05T06:57:11.302Z,21.70
2022-10-05T06:59:48.493Z,21.70
2022-10-05T07:02:26.906Z,21.70
2022-10-05T07:05:12.460Z,21.70
2022-10-05T07:07:51.551Z,21.70
2022-10-05T07:10:29.527Z,21.70
2022-10-05T07:13:13.487Z,21.70
2022-10-05T07:15:49.651Z,21.70
2022-10-05T07:18:38.452Z,21.80
2022-10-05T07:21:16.398Z,21.80
2022-10-05T07:23:53.742Z,21.80
2022-10-05T07:26:28.733Z,21.80
2022-10-05T07:29:20.051Z,21.80
2022-10-05T07:31:55.329Z,21.80
2022-10-05T07:34:34.485Z,21.80
2022-10-05T07:37:22.127Z,21.80
2022-10-05T07:40:01.874Z,21.80
2022-10-05T07:42:50.533Z,21.80
2022-10-05T07:45:28.248Z,21.90
2022-10-05T07:47:59.444Z,21.90
2022-10-05T07:50:34.967Z,22.00
2022-10-05T07:53:12.671Z,22.00
2022-10-05T07:55:45.931Z,22.00
2022-10-05T07:58:22.417Z,22.00
2022-10-05T08:01:01.473Z,22.10
2022-10-05T08:03:43.928Z,22.10
2022-10-05T08:06:30.039Z,22.10
2022-10-05T08:09:05.526Z,22.10
2022-10-05T08:11:40.385Z,22.20
2022-10-05T08:14:16.621Z,22.20
2022-10-05T08:16:46.908Z,22.20
2022-10-05T08:19:21.307Z,22.20
2022-10-05T08:21:55.249Z,22.20
2022-10-05T08:24:39.949Z,22.20
2022-10-05T08:27:15.027Z,22.30
2022-10-05T08:29:51.379Z,22.30
2022-10-05T08:32:25.181Z,22.30
2022-10-05T08:35:00.537Z,22.30
2022-10-05T08:37:32.211Z,22.40
2022-10-05T08:40:32.466Z,22.40
2022-10-05T08:43:14.692Z,22.40
2022-10-05T08:46:10.555Z,22.40
2022-10-05T08:49:10.794Z,22.40
2022-10-05T08:52:08.141Z,22.40
2022-10-05T08:55:16.106Z,22.40
2022-10-05T08:58:21.245Z,22.40
2022-10-05T09:00:57.146Z,22.40
2022-10-05T09:04:10.024Z,22.40
2022-10-05T09:07:04.344Z,22.50
2022-10-05T09:09:47.190Z,22.50
2022-10-05T09:12:45.382Z,22.50
2022-10-05T09:15:44.578Z,22.50
2022-10-05T09:18:51.052Z,22.50
2022-10-05T09:21:32.669Z,22.50
2022-10-05T09:24:23.613Z,22.50
2022-10-05T09:27:01.682Z,22.60
2022-10-05T09:30:08.800Z,22.60
2022-10-05T09:33:29.220Z,22.60
2022-10-05T09:36:49.660Z,22.60
2022-10-05T09:39:38.497Z,22.60
2022-10-05T09:42:37.900Z,22.70
2022-10-05T09:45:27.679Z,22.70
2022-10-05T09:48:33.225Z,22.70
2022-10-05T09:51:24.392Z,22.70
2022-10-05T09:54:25.755Z,22.80
2022-10-05T09:57:23.334Z,22.80
2022-10-05T10:00:28.354Z,22.80
2022-10-05T10:03:18.979Z,22.80
2022-10-05T10:06:12.826Z,22.80
2022-10-05T10:09:10.715Z,22.90
2022-10-05T10:11:55.346Z,22.90
2022-10-05T10:14:50.853Z,22.90
2022-10-05T10:17:48.475Z,22.90
2022-10-05T10:20:31.810Z,22.90
2022-10-05T10:23:16.398Z,23.00
2022-10-05T10:26:04.535Z,23.00
2022-10-05T10:28:55.075Z,23.00
2022-10-05T10:31:54.105Z,23.10
2022-10-05T10:34:43.799Z,23.10
2022-10-05T10:37:34.536Z,23.20
2022-10-05T10:40:20.551Z,23.30
2022-10-05T10:43:10.146Z,23.50
2022-10-05T10:45:55.077Z,23.60
2022-10-05T10:48:51.755Z,23.80
2022-10-05T10:51:35.187Z,24.00
2022-10-05T10:54:52.798Z,24.10
2022-10-05T10:57:33.952Z,24.20
2022-10-05T11:00:24.172Z,24.30
2022-10-05T11:03:21.972Z,24.40
2022-10-05T11:06:25.817Z,24.50
2022-10-05T11:09:18.980Z,24.50
2022-10-05T11:12:30.884Z,24.60
2022-10-05T11:15:26.795Z,24.70
2022-10-05T11:18:16.204Z,24.70
2022-10-05T11:21:36.655Z,24.70
2022-10-05T11:24:38.919Z,24.60
2022-10-05T11:27:34.254Z,24.70
2022-10-05T11:30:31.453Z,24.70
2022-10-05T11:33:44.999Z,24.60
2022-10-05T11:36:37.674Z,24.60
2022-10-05T11:39:30.348Z,24.60
2022-10-05T11:42:39.676Z,24.60
2022-10-05T11:45:40.030Z,24.60
2022-10-05T11:48:22.492Z,24.70
2022-10-05T11:51:15.122Z,24.80
2022-10-05T11:53:53.318Z,24.90
2022-10-05T11:56:27.311Z,25.00
2022-10-05T11:59:02.736Z,25.00
2022-10-05T12:01:39.004Z,25.10
2022-10-05T12:04:16.470Z,25.20
2022-10-05T12:07:05.073Z,25.30
2022-10-05T12:10:02.874Z,25.50
2022-10-05T12:12:38.030Z,25.60
2022-10-05T12:15:18.137Z,25.70
2022-10-05T12:17:52.166Z,25.80
2022-10-05T12:20:24.913Z,25.80
2022-10-05T12:22:58.913Z,25.90
2022-10-05T12:25:31.675Z,25.90
2022-10-05T12:28:04.981Z,25.90
2022-10-05T12:30:57.768Z,26.00
2022-10-05T12:33:33.969Z,26.00
2022-10-05T12:36:06.630Z,26.00
2022-10-05T12:38:39.267Z,26.10
2022-10-05T12:41:17.772Z,26.10
2022-10-05T12:43:59.309Z,26.10
2022-10-05T12:46:35.731Z,26.10
2022-10-05T12:49:28.548Z,26.10
2022-10-05T12:51:59.142Z,26.10
2022-10-05T12:54:43.145Z,26.10
2022-10-05T12:57:18.974Z,26.10
2022-10-05T12:59:54.885Z,26.10
2022-10-05T13:02:33.672Z,26.00
2022-10-05T13:05:14.318Z,26.00
2022-10-05T13:07:54.176Z,26.00
2022-10-05T13:10:30.577Z,25.90
2022-10-05T13:13:14.195Z,25.90
2022-10-05T13:15:51.048Z,25.80
2022-10-05T13:18:27.206Z,25.70
2022-10-05T13:21:05.272Z,25.70
2022-10-05T13:23:44.117Z,25.60
2022-10-05T13:26:16.661Z,25.60
2022-10-05T13:28:53.768Z,25.60
2022-10-05T13:31:26.594Z,25.60
2022-10-05T13:34:08.800Z,25.60
2022-10-05T13:36:49.543Z,25.50
2022-10-05T13:39:42.914Z,25.50
2022-10-05T13:42:16.428Z,25.50
2022-10-05T13:44:49.709Z,25.50
2022-10-05T13:47:26.778Z,25.50
2022-10-05T13:49:59.887Z,25.40
2022-10-05T13:52:48.731Z,25.40
2022-10-05T13:55:34.321Z,25.40
2022-10-05T13:58:07.106Z,25.30
2022-10-05T14:00:42.556Z,25.30
2022-10-05T14:03:30.538Z,25.40
2022-10-05T14:06:01.421Z,25.50
2022-10-05T14:08:34.043Z,25.50
2022-10-05T14:11:22.106Z,25.60
2022-10-05T14:13:50.763Z,25.60
2022-10-05T14:16:23.462Z,25.70
2022-10-05T14:18:58.360Z,25.70
2022-10-05T14:21:27.869Z,25.70
2022-10-05T14:24:32.104Z,25.80
2022-10-05T14:27:21.291Z,25.80
2022-10-05T14:29:57.816Z,25.80
2022-10-05T14:32:28.323Z,25.90
2022-10-05T14:35:01.205Z,25.90
2022-10-05T14:37:33.993Z,25.90
2022-10-05T14:40:24.773Z,25.90
2022-10-05T14:42:52.898Z,26.00
2022-10-05T14:45:30.931Z,26.00
2022-10-05T14:48:11.500Z,25.90
2022-10-05T14:50:55.567Z,25.90
2022-10-05T14:53:26.276Z,25.90
2022-10-05T14:56:46.380Z,25.90
2022-10-05T14:59:27.714Z,25.90
2022-10-05T15:02:01.241Z,25.80
2022-10-05T15:04:45.294Z,25.70
2022-10-05T15:07:26.009Z,25.70
2022-10-05T15:10:29.372Z,25.60
2022-10-05T15:13:11.468Z,25.50
2022-10-05T15:15:46.042Z,25.40
2022-10-05T15:18:23.094Z,25.40
2022-10-05T15:20:58.195Z,25.40
2022-10-05T15:23:31.472Z,25.30
2022-10-05T15:26:14.900Z,25.30
2022-10-05T15:28:52.517Z,25.20
2022-10-05T15:31:27.359Z,25.20
2022-10-05T15:34:02.427Z,25.10
2022-10-05T15:36:39.190Z,25.00
2022-10-05T15:39:19.247Z,25.00
2022-10-05T15:42:00.396Z,24.90
2022-10-05T15:44:45.378Z,24.90
2022-10-05T15:47:20.087Z,24.80
2022-10-05T15:49:58.391Z,24.80
2022-10-05T15:52:30.689Z,24.80
2022-10-05T15:55:20.014Z,24.80
2022-10-05T15:57:59.568Z,24.70
2022-10-05T16:00:30.651Z,24.70
2022-10-05T16:03:12.431Z,24.70
2022-10-05T16:06:04.127Z,24.70
2022-10-05T16:08:54.236Z,24.70
2022-10-05T16:11:48.508Z,24.70
2022-10-05T16:14:28.326Z,24.70
2022-10-05T16:17:08.441Z,24.70
2022-10-05T16:19:46.136Z,24.70
2022-10-05T16:22:23.086Z,24.70
2022-10-05T16:25:03.640Z,24.70
2022-10-05T16:27:48.544Z,24.60
2022-10-05T16:30:20.844Z,24.60
2022-10-05T16:32:57.412Z,24.60
2022-10-05T16:35:38.261Z,24.60
2022-10-05T16:38:19.382Z,24.60
2022-10-05T16:41:01.950Z,24.50
2022-10-05T16:43:44.877Z,24.50
2022-10-05T16:46:22.723Z,24.50
2022-10-05T16:49:04.110Z,24.50
2022-10-05T16:51:41.874Z,24.50
2022-10-05T16:54:19.079Z,24.50
2022-10-05T16:56:52.450Z,24.50
2022-10-05T16:59:54.174Z,24.50
2022-10-05T17:02:40.451Z,24.50
2022-10-05T17:05:38.618Z,24.50
2022-10-05T17:08:26.381Z,24.60
2022-10-05T17:11:21.243Z,24.60
2022-10-05T17:14:08.333Z,24.60
2022-10-05T17:16:48.842Z,24.70
2022-10-05T17:19:45.747Z,24.70
2022-10-05T17:22:26.289Z,24.70
2022-10-05T17:25:08.957Z,24.70
2022-10-05T17:27:52.193Z,24.70
2022-10-05T17:30:39.745Z,24.70
2022-10-05T17:33:26.099Z,24.60
2022-10-05T17:36:12.394Z,24.60
2022-10-05T17:38:51.345Z,24.60
2022-10-05T17:41:24.806Z,24.60
2022-10-05T17:44:26.962Z,24.60
2022-10-05T17:46:57.642Z,24.60
2022-10-05T17:50:15.418Z,24.50
2022-10-05T17:53:02.632Z,24.50
2022-10-05T17:55:47.017Z,24.50
2022-10-05T17:59:00.748Z,24.50
2022-10-05T18:01:35.126Z,24.40
2022-10-05T18:04:37.799Z,24.40
2022-10-05T18:07:33.364Z,24.40
2022-10-05T18:10:23.203Z,24.40
2022-10-05T18:13:34.822Z,24.40
2022-10-05T18:16:03.014Z,24.40
2022-10-05T18:18:55.874Z,24.40
2022-10-05T18:21:37.695Z,24.40
2022-10-05T18:24:43.152Z,24.30
2022-10-05T18:27:40.849Z,24.30
2022-10-05T18:30:20.953Z,24.30
2022-10-05T18:33:11.118Z,24.30
2022-10-05T18:35:53.387Z,24.30
2022-10-05T18:38:33.834Z,24.30
2022-10-05T18:41:06.406Z,24.20
2022-10-05T18:43:40.993Z,24.20
2022-10-05T18:46:25.656Z,24.20
2022-10-05T18:49:07.987Z,24.20
2022-10-05T18:51:43.248Z,24.20
2022-10-05T18:54:30.921Z,24.20
2022-10-05T18:57:08.491Z,24.20
2022-10-05T18:59:49.354Z,24.20
2022-10-05T19:02:26.080Z,24.20
2022-10-05T19:05:07.270Z,24.10
2022-10-05T19:07:48.878Z,24.10
2022-10-05T19:10:26.374Z,24.10
2022-10-05T19:13:04.964Z,24.10
2022-10-05T19:15:40.791Z,24.10
2022-10-05T19:18:32.110Z,24.10
2022-10-05T19:21:09.594Z,24.10
2022-10-05T19:23:51.458Z,24.00
2022-10-05T19:26:33.224Z,24.00
2022-10-05T19:29:09.018Z,24.00
2022-10-05T19:31:48.174Z,24.00
2022-10-05T19:34:40.914Z,24.00
2022-10-05T19:37:15.401Z,24.00
2022-10-05T19:39:51.442Z,24.00
2022-10-05T19:42:38.189Z,23.90
2022-10-05T19:45:18.676Z,23.90
2022-10-05T19:47:56.326Z,23.90
2022-10-05T19:50:31.057Z,23.90
2022-10-05T19:53:07.320Z,23.90
2022-10-05T19:55:38.035Z,23.90
2022-10-05T19:58:19.526Z,23.90
2022-10-05T20:00:55.753Z,23.90
2022-10-05T20:03:27.562Z,23.90
2022-10-05T20:06:01.186Z,23.90
2022-10-05T20:08:39.289Z,23.90
2022-10-05T20:11:14.135Z,23.90
2022-10-05T20:13:44.218Z,23.80
2022-10-05T20:16:46.497Z,23.80
2022-10-05T20:19:55.317Z,23.80
2022-10-05T20:22:30.833Z,23.80
2022-10-05T20:25:01.191Z,23.80
2022-10-05T20:27:44.344Z,23.90
2022-10-05T20:30:14.692Z,23.90
2022-10-05T20:32:43.695Z,23.90
2022-10-05T20:35:11.891Z,23.90
2022-10-05T20:37:41.354Z,23.90
2022-10-05T20:40:11.789Z,24.00
2022-10-05T20:42:40.143Z,24.00
2022-10-05T20:45:09.246Z,24.00
2022-10-05T20:47:38.219Z,24.00
2022-10-05T20:50:09.001Z,24.00
2022-10-05T20:52:38.335Z,24.00
2022-10-05T20:55:10.476Z,24.00
2022-10-05T20:57:43.534Z,24.00
2022-10-05T21:00:13.283Z,24.00
2022-10-05T21:02:41.422Z,24.00
2022-10-05T21:05:10.635Z,24.00
2022-10-05T21:07:38.824Z,24.00
2022-10-05T21:10:09.402Z,24.00
2022-10-05T21:12:37.453Z,24.00
2022-10-05T21:15:06.603Z,24.00
2022-10-05T21:17:37.248Z,24.00
2022-10-05T21:20:05.802Z,24.10
2022-10-05T21:22:36.279Z,24.00
2022-10-05T21:25:04.518Z,24.10
2022-10-05T21:27:33.945Z,24.10
2022-10-05T21:30:02.030Z,24.00
2022-10-05T21:32:30.083Z,24.10
2022-10-05T21:34:58.287Z,24.10
2022-10-05T21:37:26.445Z,24.10
2022-10-05T21:39:54.486Z,24.10
2022-10-05T21:42:23.585Z,24.10
2022-10-05T21:44:53.144Z,24.10
2022-10-05T21:47:21.217Z,24.10
2022-10-05T21:49:49.337Z,24.10
2022-10-05T21:52:17.600Z,24.10
2022-10-05T21:54:46.319Z,24.10
2022-10-05T21:57:15.372Z,24.10
2022-10-05T21:59:43.929Z,24.10
2022-10-05T22:02:13.355Z,24.10
2022-10-05T22:04:41.410Z,24.10
2022-10-05T22:07:19.026Z,24.10
2022-10-05T22:09:48.457Z,24.10
2022-10-05T22:12:17.121Z,24.10
2022-10-05T22:14:45.223Z,24.10
2022-10-05T22:17:19.629Z,24.10
2022-10-05T22:19:47.756Z,24.10
2022-10-05T22:22:15.858Z,24.10
2022-10-05T22:24:43.967Z,24.10
2022-10-05T22:27:12.344Z,24.10
2022-10-05T22:29:40.952Z,24.10
2022-10-05T22:32:09.052Z,24.00
2022-10-05T22:34:38.519Z,24.10
2022-10-05T22:37:07.507Z,24.10
2022-10-05T22:39:35.580Z,24.10
2022-10-05T22:42:05.792Z,24.10
2022-10-05T22:44:33.975Z,24.10
2022-10-05T22:47:02.397Z,24.10
2022-10-05T22:49:30.534Z,24.10
2022-10-05T22:52:00.067Z,24.10
2022-10-05T22:54:30.510Z,24.10
2022-10-05T22:57:00.709Z,24.00
2022-10-05T22:59:30.825Z,24.10
2022-10-05T23:01:59.089Z,24.00
2022-10-05T23:04:27.269Z,24.00
2022-10-05T23:06:55.607Z,24.00
2022-10-05T23:09:25.017Z,24.00
2022-10-05T23:11:54.420Z,24.00
2022-10-05T23:14:23.058Z,24.00
2022-10-05T23:16:51.484Z,24.00
2022-10-05T23:19:19.570Z,24.00
2022-10-05T23:21:47.617Z,24.00
2022-10-05T23:24:15.686Z,23.90
2022-10-05T23:26:45.125Z,23.90
2022-10-05T23:29:13.180Z,23.90
2022-10-05T23:31:41.241Z,23.90
2022-10-05T23:34:09.525Z,23.90
2022-10-05T23:36:37.565Z,23.90
2022-10-05T23:39:05.646Z,23.90
2022-10-05T23:41:34.420Z,23.80
2022-10-05T23:44:03.861Z,23.80
2022-10-05T23:46:31.926Z,23.80
2022-10-05T23:48:59.958Z,23.80
2022-10-05T23:51:28.144Z,23.80
2022-10-05T23:53:56.208Z,23.80
2022-10-05T23:56:24.333Z,23.80
2022-10-05T23:58:52.500Z,23.80
